createdAt,value
2023-02-18T00:01:17.880Z,7.30
2023-02-18T00:03:46.433Z,7.40
2023-02-18T00:06:15.712Z,7.40
2023-02-18T00:08:45.339Z,7.10
2023-02-18T00:11:13.702Z,7.30
2023-02-18T00:13:43.495Z,7.20
2023-02-18T00:16:13.117Z,7.30
2023-02-18T00:18:41.486Z,7.40
2023-02-18T00:21:10.247Z,7.50
2023-02-18T00:23:38.234Z,7.20
2023-02-18T00:26:13.296Z,7.70
2023-02-18T00:28:43.078Z,7.30
2023-02-18T00:31:13.047Z,7.50
2023-02-18T00:33:41.893Z,7.30
2023-02-18T00:36:11.977Z,7.30
2023-02-18T00:41:08.149Z,7.30
2023-02-18T00:43:37.232Z,7.20
2023-02-18T00:46:06.957Z,7.20
2023-02-18T00:48:35.669Z,7.10
2023-02-18T00:51:04.214Z,7.10
2023-02-18T00:53:32.569Z,7.10
2023-02-18T00:56:00.558Z,7.20
2023-02-18T00:58:28.903Z,7.40
2023-02-18T01:00:57.346Z,7.20
2023-02-18T01:03:26.694Z,7.20
2023-02-18T01:05:54.672Z,7.20
2023-02-18T01:10:55.932Z,7.20
2023-02-18T01:13:24.161Z,6.90
2023-02-18T01:18:21.613Z,6.80
2023-02-18T01:20:50.886Z,7.10
2023-02-18T01:23:19.460Z,7.20
2023-02-18T01:25:47.823Z,7.20
2023-02-18T01:28:16.582Z,7.40
2023-02-18T01:30:44.958Z,7.10
2023-02-18T01:33:13.168Z,7.20
2023-02-18T01:35:41.922Z,7.20
2023-02-18T01:38:11.545Z,7.10
2023-02-18T01:40:47.519Z,7.10
2023-02-18T01:43:16.349Z,6.70
2023-02-18T01:45:53.317Z,6.70
2023-02-18T01:48:24.553Z,7.30
2023-02-18T01:50:55.168Z,7.10
2023-02-18T01:53:29.608Z,6.60
2023-02-18T01:55:58.259Z,6.70
2023-02-18T01:58:26.515Z,7.20
2023-02-18T02:00:54.510Z,7.10
2023-02-18T02:03:22.468Z,6.50
2023-02-18T02:05:50.425Z,6.60
2023-02-18T02:08:18.563Z,7.00
2023-02-18T02:11:03.513Z,6.60
2023-02-18T02:13:43.353Z,6.70
2023-02-18T02:16:19.262Z,6.50
2023-02-18T02:18:59.789Z,6.50
2023-02-18T02:21:56.381Z,6.70
2023-02-18T02:24:55.438Z,6.60
2023-02-18T02:27:30.191Z,6.60
2023-02-18T02:30:43.271Z,6.40
2023-02-18T02:33:49.870Z,6.60
2023-02-18T02:36:22.996Z,6.20
2023-02-18T02:38:57.556Z,6.50
2023-02-18T02:41:37.032Z,6.40
2023-02-18T02:44:15.141Z,6.40
2023-02-18T02:46:46.790Z,6.40
2023-02-18T02:49:29.791Z,6.30
2023-02-18T02:52:04.294Z,6.70
2023-02-18T02:54:32.310Z,6.70
2023-02-18T02:57:07.997Z,6.20
2023-02-18T02:59:37.421Z,6.50
2023-02-18T03:02:23.022Z,6.80
2023-02-18T03:05:17.037Z,6.50
2023-02-18T03:08:14.678Z,6.60
2023-02-18T03:10:50.465Z,6.70
2023-02-18T03:13:27.698Z,6.40
2023-02-18T03:15:59.870Z,6.70
2023-02-18T03:18:34.878Z,6.40
2023-02-18T03:21:07.391Z,6.40
2023-02-18T03:23:43.987Z,6.40
2023-02-18T03:26:14.150Z,6.30
2023-02-18T03:28:43.166Z,6.50
2023-02-18T03:31:14.859Z,6.30
2023-02-18T03:33:47.750Z,6.60
2023-02-18T03:36:15.735Z,6.30
2023-02-18T03:38:51.987Z,6.70
2023-02-18T03:41:19.938Z,6.40
2023-02-18T03:43:51.117Z,6.20
2023-02-18T03:46:19.572Z,6.40
2023-02-18T03:48:47.556Z,6.70
2023-02-18T03:53:45.074Z,6.30
2023-02-18T03:56:13.185Z,6.40
2023-02-18T03:58:41.085Z,6.60
2023-02-18T04:01:09.339Z,6.30
2023-02-18T04:03:37.381Z,6.30
2023-02-18T04:06:05.895Z,6.20
2023-02-18T04:08:34.111Z,6.30
2023-02-18T04:11:03.456Z,6.40
2023-02-18T04:13:31.371Z,6.10
2023-02-18T04:15:59.310Z,6.40
2023-02-18T04:18:27.308Z,6.20
2023-02-18T04:20:55.259Z,6.00
2023-02-18T04:25:51.420Z,6.00
2023-02-18T04:28:20.742Z,6.70
2023-02-18T04:30:49.796Z,6.60
2023-02-18T04:33:17.975Z,6.40
2023-02-18T04:35:45.924Z,6.30
2023-02-18T04:38:16.232Z,6.40
2023-02-18T04:40:44.461Z,6.30
2023-02-18T04:43:12.439Z,6.10
2023-02-18T04:45:41.666Z,6.20
2023-02-18T04:50:37.904Z,6.10
2023-02-18T04:53:05.856Z,6.10
2023-02-18T04:58:02.210Z,6.00
2023-02-18T05:00:30.232Z,6.80
2023-02-18T05:02:59.497Z,5.80
2023-02-18T05:05:27.389Z,5.90
2023-02-18T05:07:55.279Z,6.00
2023-02-18T05:15:20.150Z,5.90
2023-02-18T05:17:48.100Z,5.90
2023-02-18T05:20:17.418Z,6.30
2023-02-18T05:22:45.377Z,6.30
2023-02-18T05:25:13.262Z,6.10
2023-02-18T05:27:41.174Z,6.20
2023-02-18T05:30:10.176Z,5.80
2023-02-18T05:32:38.114Z,5.90
2023-02-18T05:35:06.710Z,5.90
2023-02-18T05:37:36.025Z,6.00
2023-02-18T05:40:04.094Z,5.50
2023-02-18T05:42:32.993Z,5.60
2023-02-18T05:45:00.982Z,6.00
2023-02-18T05:49:57.159Z,5.70
2023-02-18T05:54:54.960Z,5.80
2023-02-18T05:57:23.001Z,5.80
2023-02-18T05:59:51.004Z,6.10
2023-02-18T06:02:19.291Z,5.80
2023-02-18T06:04:47.223Z,5.80
2023-02-18T06:07:15.228Z,5.70
2023-02-18T06:09:43.184Z,5.70
2023-02-18T06:12:12.505Z,5.60
2023-02-18T06:14:42.264Z,5.80
2023-02-18T06:17:10.566Z,5.90
2023-02-18T06:19:38.596Z,5.60
2023-02-18T06:22:06.888Z,5.70
2023-02-18T06:24:35.150Z,6.10
2023-02-18T06:27:04.419Z,5.50
2023-02-18T06:29:35.888Z,5.60
2023-02-18T06:32:04.039Z,6.10
2023-02-18T06:34:32.150Z,6.00
2023-02-18T06:37:01.386Z,5.80
2023-02-18T06:39:29.798Z,6.20
2023-02-18T06:41:58.077Z,5.90
2023-02-18T06:44:26.027Z,5.90
2023-02-18T06:46:55.370Z,5.80
2023-02-18T06:49:23.279Z,6.10
2023-02-18T06:51:51.199Z,5.90
2023-02-18T06:54:19.102Z,5.90
2023-02-18T06:56:47.005Z,6.10
2023-02-18T06:59:14.957Z,6.10
2023-02-18T07:01:42.851Z,6.10
2023-02-18T07:04:12.131Z,6.00
2023-02-18T07:06:40.084Z,6.00
2023-02-18T07:09:08.078Z,6.30
2023-02-18T07:11:35.976Z,6.00
2023-02-18T07:14:03.893Z,5.80
2023-02-18T07:16:31.799Z,6.00
2023-02-18T07:18:59.785Z,6.00
2023-02-18T07:21:29.023Z,6.20
2023-02-18T07:23:56.927Z,6.30
2023-02-18T07:28:53.133Z,6.10
2023-02-18T07:31:21.101Z,6.20
2023-02-18T07:33:49.058Z,6.50
2023-02-18T07:36:16.963Z,6.30
2023-02-18T07:38:46.187Z,6.10
2023-02-18T07:41:19.776Z,6.30
2023-02-18T07:43:47.839Z,6.50
2023-02-18T07:46:15.967Z,6.30
2023-02-18T07:48:43.979Z,6.60
2023-02-18T07:51:14.159Z,6.40
2023-02-18T07:53:42.247Z,6.20
2023-02-18T07:56:12.056Z,6.30
2023-02-18T07:58:41.061Z,6.30
2023-02-18T08:01:11.026Z,6.40
2023-02-18T08:03:39.055Z,6.50
2023-02-18T08:06:08.698Z,6.80
2023-02-18T08:08:37.328Z,6.10
2023-02-18T08:11:18.077Z,6.80
2023-02-18T08:13:48.938Z,6.50
2023-02-18T08:16:17.490Z,6.60
2023-02-18T08:18:47.868Z,6.60
2023-02-18T08:21:16.612Z,6.60
2023-02-18T08:23:45.117Z,6.70
2023-02-18T08:26:13.643Z,6.70
2023-02-18T08:28:41.538Z,6.80
2023-02-18T08:31:17.802Z,6.80
2023-02-18T08:33:45.725Z,6.80
2023-02-18T08:36:13.672Z,6.90
2023-02-18T08:38:41.621Z,7.20
2023-02-18T08:41:10.684Z,6.80
2023-02-18T08:43:38.958Z,7.30
2023-02-18T08:46:07.216Z,7.20
2023-02-18T08:48:36.545Z,6.50
2023-02-18T08:51:16.271Z,7.30
2023-02-18T08:56:14.568Z,7.30
2023-02-18T08:58:42.637Z,7.30
2023-02-18T09:01:13.042Z,7.30
2023-02-18T09:03:42.459Z,7.20
2023-02-18T09:06:10.856Z,7.10
2023-02-18T09:08:38.819Z,7.30
2023-02-18T09:11:08.155Z,7.50
2023-02-18T09:13:36.250Z,7.30
2023-02-18T09:16:06.272Z,7.40
2023-02-18T09:18:35.928Z,7.30
2023-02-18T09:21:08.284Z,8.10
2023-02-18T09:23:36.948Z,7.50
2023-02-18T09:26:07.203Z,7.50
2023-02-18T09:28:35.564Z,7.50
2023-02-18T09:31:07.024Z,7.50
2023-02-18T09:33:37.217Z,7.50
2023-02-18T09:36:07.607Z,7.60
2023-02-18T09:38:35.726Z,7.60
2023-02-18T09:41:08.933Z,7.60
2023-02-18T09:43:43.867Z,7.70
2023-02-18T09:46:20.497Z,7.70
2023-02-18T09:48:49.661Z,7.70
2023-02-18T09:51:19.828Z,7.60
2023-02-18T09:53:48.225Z,7.80
2023-02-18T09:56:21.706Z,7.80
2023-02-18T09:58:50.182Z,7.80
2023-02-18T10:01:24.737Z,7.90
2023-02-18T10:03:55.651Z,7.90
2023-02-18T10:06:28.321Z,8.00
2023-02-18T10:08:59.060Z,8.10
2023-02-18T10:11:33.041Z,8.10
2023-02-18T10:14:04.198Z,8.20
2023-02-18T10:16:32.753Z,8.20
2023-02-18T10:19:06.164Z,8.20
2023-02-18T10:21:36.417Z,8.70
2023-02-18T10:24:07.617Z,8.20
2023-02-18T10:26:38.246Z,8.20
2023-02-18T10:29:14.652Z,8.20
2023-02-18T10:31:45.461Z,8.30
2023-02-18T10:34:20.172Z,8.30
2023-02-18T10:36:54.806Z,8.50
2023-02-18T10:39:34.172Z,8.20
2023-02-18T10:42:15.308Z,8.20
2023-02-18T10:44:52.319Z,8.10
2023-02-18T10:47:29.208Z,8.10
2023-02-18T10:50:00.366Z,8.10
2023-02-18T10:52:34.519Z,8.00
2023-02-18T10:55:05.518Z,8.40
2023-02-18T10:57:34.560Z,8.10
2023-02-18T11:00:11.787Z,8.20
2023-02-18T11:02:40.791Z,8.20
2023-02-18T11:05:20.624Z,8.30
2023-02-18T11:07:53.692Z,8.40
2023-02-18T11:10:27.045Z,8.50
2023-02-18T11:13:00.960Z,8.60
2023-02-18T11:15:29.978Z,8.60
2023-02-18T11:18:00.264Z,8.70
2023-02-18T11:20:32.751Z,9.40
2023-02-18T11:23:21.701Z,9.80
2023-02-18T11:26:02.590Z,8.50
2023-02-18T11:28:43.026Z,8.50
2023-02-18T11:31:16.985Z,8.50
2023-02-18T11:33:49.136Z,8.60
2023-02-18T11:36:35.962Z,8.60
2023-02-18T11:39:07.765Z,8.60
2023-02-18T11:41:38.341Z,8.60
2023-02-18T11:44:09.399Z,8.60
2023-02-18T11:46:37.327Z,9.00
2023-02-18T11:49:23.211Z,9.10
2023-02-18T11:51:52.642Z,8.60
2023-02-18T11:54:27.874Z,8.50
2023-02-18T11:56:58.294Z,8.60
2023-02-18T11:59:27.130Z,8.70
2023-02-18T12:02:01.465Z,8.70
2023-02-18T12:04:34.597Z,8.70
2023-02-18T12:07:13.685Z,8.70
2023-02-18T12:09:47.298Z,8.60
2023-02-18T12:12:18.825Z,8.60
2023-02-18T12:14:46.885Z,8.50
2023-02-18T12:17:41.465Z,8.50
2023-02-18T12:20:27.915Z,8.40
2023-02-18T12:23:03.075Z,8.30
2023-02-18T12:25:40.517Z,8.80
2023-02-18T12:28:24.047Z,8.60
2023-02-18T12:31:11.029Z,8.20
2023-02-18T12:33:49.936Z,8.40
2023-02-18T12:36:31.974Z,8.20
2023-02-18T12:39:15.748Z,8.20
2023-02-18T12:41:56.801Z,8.10
2023-02-18T12:44:35.024Z,8.10
2023-02-18T12:47:30.789Z,8.20
2023-02-18T12:50:34.107Z,8.20
2023-02-18T12:53:29.897Z,8.20
2023-02-18T12:56:11.258Z,8.20
2023-02-18T12:58:53.800Z,8.20
2023-02-18T13:01:36.172Z,8.30
2023-02-18T13:04:26.784Z,8.20
2023-02-18T13:07:30.243Z,8.10
2023-02-18T13:10:12.384Z,8.10
2023-02-18T13:12:45.885Z,9.30
2023-02-18T13:15:21.535Z,8.20
2023-02-18T13:17:51.659Z,8.20
2023-02-18T13:20:26.366Z,8.20
2023-02-18T13:22:54.827Z,8.20
2023-02-18T13:25:23.765Z,8.20
2023-02-18T13:28:07.172Z,8.20
2023-02-18T13:30:43.974Z,8.20
2023-02-18T13:33:19.520Z,9.00
2023-02-18T13:35:53.455Z,8.70
2023-02-18T13:38:53.930Z,8.20
2023-02-18T13:41:22.452Z,8.20
2023-02-18T13:43:50.527Z,8.20
2023-02-18T13:46:22.035Z,8.20
2023-02-18T13:48:52.882Z,8.20
2023-02-18T13:51:31.366Z,8.10
2023-02-18T13:54:05.226Z,8.10
2023-02-18T13:56:35.898Z,7.90
2023-02-18T13:59:12.940Z,7.90
2023-02-18T14:01:47.368Z,8.20
2023-02-18T14:04:35.398Z,7.60
2023-02-18T14:07:27.410Z,8.20
2023-02-18T14:09:56.965Z,7.40
2023-02-18T14:12:38.477Z,7.20
2023-02-18T14:15:49.279Z,7.40
2023-02-18T14:18:31.481Z,6.80
2023-02-18T14:21:22.620Z,6.60
2023-02-18T14:24:01.825Z,6.50
2023-02-18T14:26:33.301Z,6.40
2023-02-18T14:29:12.612Z,6.30
2023-02-18T14:31:48.372Z,6.30
2023-02-18T14:34:52.203Z,6.30
2023-02-18T14:37:43.469Z,6.20
2023-02-18T14:40:38.402Z,6.20
2023-02-18T14:43:13.143Z,6.10
2023-02-18T14:46:04.222Z,6.10
2023-02-18T14:49:00.984Z,6.10
2023-02-18T14:51:33.122Z,6.00
2023-02-18T14:54:06.448Z,6.00
2023-02-18T14:56:39.532Z,6.20
2023-02-18T14:59:07.978Z,6.00
2023-02-18T15:01:36.936Z,5.90
2023-02-18T15:04:05.770Z,5.80
2023-02-18T15:06:37.391Z,5.80
2023-02-18T15:09:15.686Z,5.80
2023-02-18T15:11:46.925Z,5.80
2023-02-18T15:14:19.786Z,5.70
2023-02-18T15:16:48.625Z,5.70
2023-02-18T15:19:19.074Z,5.70
2023-02-18T15:21:51.422Z,5.70
2023-02-18T15:24:26.380Z,5.70
2023-02-18T15:26:57.558Z,5.70
2023-02-18T15:29:27.550Z,5.70
2023-02-18T15:31:58.614Z,5.70
2023-02-18T15:34:37.140Z,5.60
2023-02-18T15:37:09.182Z,5.70
2023-02-18T15:39:39.417Z,5.60
2023-02-18T15:42:16.051Z,5.60
2023-02-18T15:44:48.212Z,5.80
2023-02-18T15:47:18.693Z,5.60
2023-02-18T15:49:50.217Z,5.60
2023-02-18T15:52:26.261Z,5.60
2023-02-18T15:54:54.837Z,5.60
2023-02-18T15:57:29.007Z,5.60
2023-02-18T16:00:04.055Z,5.50
2023-02-18T16:02:33.913Z,5.50
2023-02-18T16:05:05.447Z,5.50
2023-02-18T16:07:50.067Z,5.90
2023-02-18T16:10:22.133Z,5.50
2023-02-18T16:12:54.033Z,5.50
2023-02-18T16:15:26.697Z,5.50
2023-02-18T16:17:54.680Z,5.50
2023-02-18T16:20:30.494Z,5.50
2023-02-18T16:23:04.397Z,5.50
2023-02-18T16:25:44.142Z,5.50
2023-02-18T16:28:17.353Z,5.50
2023-02-18T16:30:46.523Z,5.40
2023-02-18T16:33:15.227Z,5.50
2023-02-18T16:35:49.969Z,5.40
2023-02-18T16:38:22.864Z,5.40
2023-02-18T16:40:51.552Z,5.40
2023-02-18T16:43:21.218Z,5.40
2023-02-18T16:45:51.943Z,5.40
2023-02-18T16:48:24.308Z,5.40
2023-02-18T16:50:52.611Z,5.40
2023-02-18T16:53:21.896Z,5.40
2023-02-18T16:55:51.021Z,6.10
2023-02-18T16:58:19.014Z,5.40
2023-02-18T17:00:48.020Z,5.40
2023-02-18T17:03:16.073Z,5.40
2023-02-18T17:05:44.005Z,5.30
2023-02-18T17:08:19.214Z,5.30
2023-02-18T17:10:50.095Z,5.30
2023-02-18T17:13:19.065Z,5.40
2023-02-18T17:15:48.475Z,5.30
2023-02-18T17:18:16.399Z,5.70
2023-02-18T17:20:44.458Z,5.20
2023-02-18T17:23:15.989Z,5.50
2023-02-18T17:25:45.555Z,5.30
2023-02-18T17:28:16.705Z,5.30
2023-02-18T17:30:44.813Z,5.30
2023-02-18T17:33:16.307Z,5.20
2023-02-18T17:35:44.320Z,5.20
2023-02-18T17:38:12.841Z,5.20
2023-02-18T17:40:40.754Z,5.10
2023-02-18T17:43:13.150Z,5.10
2023-02-18T17:45:46.572Z,5.10
2023-02-18T17:48:14.468Z,5.10
2023-02-18T17:50:42.735Z,5.00
2023-02-18T17:53:11.664Z,5.00
2023-02-18T17:55:40.808Z,5.00
2023-02-18T17:58:08.733Z,5.00
2023-02-18T18:00:38.748Z,4.90
2023-02-18T18:03:08.144Z,4.90
2023-02-18T18:05:37.880Z,4.90
2023-02-18T18:08:07.203Z,4.90
2023-02-18T18:10:37.952Z,4.90
2023-02-18T18:13:09.948Z,4.80
2023-02-18T18:15:40.588Z,4.80
2023-02-18T18:18:11.877Z,4.70
2023-02-18T18:20:42.051Z,4.70
2023-02-18T18:23:12.694Z,4.70
2023-02-18T18:25:42.682Z,4.70
2023-02-18T18:28:10.605Z,4.60
2023-02-18T18:30:40.690Z,4.50
2023-02-18T18:35:43.334Z,4.60
2023-02-18T18:38:11.266Z,4.60
2023-02-18T18:40:39.156Z,4.60
2023-02-18T18:43:07.413Z,4.60
2023-02-18T18:45:37.799Z,4.80
2023-02-18T18:48:06.675Z,4.60
2023-02-18T18:50:37.650Z,4.60
2023-02-18T18:53:06.203Z,5.10
2023-02-18T18:55:36.116Z,4.70
2023-02-18T18:58:04.176Z,4.70
2023-02-18T19:00:33.869Z,4.50
2023-02-18T19:03:03.848Z,4.80
2023-02-18T19:05:34.763Z,5.20
2023-02-18T19:08:04.819Z,4.80
2023-02-18T19:10:34.487Z,4.80
2023-02-18T19:13:02.768Z,4.80
2023-02-18T19:15:30.780Z,4.60
2023-02-18T19:17:58.741Z,4.80
2023-02-18T19:20:29.744Z,5.00
2023-02-18T19:22:57.730Z,5.00
2023-02-18T19:25:27.327Z,4.50
2023-02-18T19:27:55.325Z,4.90
2023-02-18T19:30:25.241Z,4.90
2023-02-18T19:32:58.608Z,4.90
2023-02-18T19:35:27.793Z,5.00
2023-02-18T19:37:56.075Z,5.10
2023-02-18T19:40:27.281Z,4.80
2023-02-18T19:42:55.319Z,5.70
2023-02-18T19:45:23.949Z,5.10
2023-02-18T19:47:55.195Z,5.00
2023-02-18T19:50:23.919Z,5.00
2023-02-18T19:52:53.529Z,5.20
2023-02-18T19:55:21.813Z,5.30
2023-02-18T19:57:51.700Z,5.10
2023-02-18T20:00:22.284Z,4.90
2023-02-18T20:02:50.799Z,4.80
2023-02-18T20:05:19.514Z,5.10
2023-02-18T20:07:47.820Z,5.10
2023-02-18T20:10:20.017Z,5.10
2023-02-18T20:12:54.197Z,5.10
2023-02-18T20:15:22.823Z,5.10
2023-02-18T20:17:50.920Z,5.10
2023-02-18T20:20:20.248Z,5.10
2023-02-18T20:22:48.197Z,4.90
2023-02-18T20:25:16.168Z,5.10
2023-02-18T20:27:59.477Z,5.00
2023-02-18T20:30:29.691Z,4.80
2023-02-18T20:32:57.696Z,5.00
2023-02-18T20:35:25.785Z,4.90
2023-02-18T20:37:53.659Z,5.10
2023-02-18T20:40:21.594Z,5.00
2023-02-18T20:42:49.622Z,5.00
2023-02-18T20:45:17.656Z,4.90
2023-02-18T20:47:46.920Z,5.10
2023-02-18T20:50:15.882Z,5.00
2023-02-18T20:52:43.867Z,5.00
2023-02-18T20:55:11.765Z,5.30
2023-02-18T20:57:39.644Z,5.00
2023-02-18T21:00:08.734Z,5.10
2023-02-18T21:02:36.676Z,5.10
2023-02-18T21:05:06.483Z,5.10
2023-02-18T21:07:34.671Z,4.90
2023-02-18T21:10:03.915Z,5.10
2023-02-18T21:12:31.846Z,5.00
2023-02-18T21:14:59.756Z,5.00
2023-02-18T21:17:27.630Z,5.10
2023-02-18T21:19:55.548Z,5.10
2023-02-18T21:22:24.772Z,5.10
2023-02-18T21:24:52.648Z,4.90
2023-02-18T21:27:20.540Z,5.10
2023-02-18T21:29:48.489Z,4.80
2023-02-18T21:32:16.498Z,4.90
2023-02-18T21:34:44.481Z,5.00
2023-02-18T21:37:12.431Z,5.00
2023-02-18T21:39:41.765Z,5.10
2023-02-18T21:42:10.602Z,5.10
2023-02-18T21:44:42.922Z,5.00
2023-02-18T21:47:12.033Z,5.00
2023-02-18T21:49:39.937Z,5.00
2023-02-18T21:52:09.492Z,4.90
2023-02-18T21:54:40.181Z,5.00
2023-02-18T21:57:12.477Z,5.10
2023-02-18T21:59:41.289Z,5.00
2023-02-18T22:02:15.501Z,5.00
2023-02-18T22:04:43.628Z,5.00
2023-02-18T22:07:11.622Z,4.90
2023-02-18T22:09:39.775Z,4.90
2023-02-18T22:12:09.659Z,4.90
2023-02-18T22:14:37.569Z,4.90
2023-02-18T22:17:05.526Z,4.70
2023-02-18T22:19:33.655Z,4.80
2023-02-18T22:22:02.623Z,4.60
2023-02-18T22:24:31.665Z,5.00
2023-02-18T22:27:01.421Z,4.90
2023-02-18T22:29:32.511Z,4.80
2023-02-18T22:32:00.753Z,4.90
2023-02-18T22:34:29.405Z,4.80
2023-02-18T22:36:57.530Z,4.90
2023-02-18T22:39:26.404Z,4.80
2023-02-18T22:41:54.285Z,4.80
2023-02-18T22:44:23.037Z,4.80
2023-02-18T22:46:52.292Z,4.80
2023-02-18T22:49:20.187Z,4.80
2023-02-18T22:51:51.695Z,4.70
2023-02-18T22:54:20.168Z,4.70
2023-02-18T22:56:49.167Z,4.70
2023-02-18T22:59:20.552Z,4.70
2023-02-18T23:01:50.453Z,4.70
2023-02-18T23:04:21.170Z,4.70
2023-02-18T23:06:49.966Z,4.70
2023-02-18T23:09:19.923Z,4.60
2023-02-18T23:11:51.656Z,4.70
2023-02-18T23:14:21.389Z,4.70
2023-02-18T23:17:08.584Z,4.70
2023-02-18T23:19:38.763Z,4.70
2023-02-18T23:22:06.813Z,4.60
2023-02-18T23:24:35.524Z,4.60
2023-02-18T23:27:03.796Z,4.60
2023-02-18T23:29:31.822Z,4.60
2023-02-18T23:31:59.828Z,4.60
2023-02-18T23:34:28.656Z,4.60
2023-02-18T23:36:58.311Z,4.60
2023-02-18T23:39:27.094Z,4.60
2023-02-18T23:41:55.008Z,4.60
2023-02-18T23:44:25.264Z,4.60
2023-02-18T23:46:53.731Z,4.50
2023-02-18T23:49:23.167Z,4.30
2023-02-18T23:51:52.191Z,4.60
2023-02-18T23:54:22.030Z,4.50
2023-02-18T23:56:49.996Z,4.10
2023-02-18T23:59:18.137Z,4.40
